sensor_id;sensor_type;location;lat;lon;timestamp;P1;durP1;ratioP1;P2;durP2;ratioP2
22017;SDS011;11173;51.050;7.108;2023-08-06T00:08:42;0.65;;;0.63;;
22017;SDS011;11173;51.050;7.108;2023-08-06T00:18:43;1.75;;;0.85;;
22017;SDS011;11173;51.050;7.108;2023-08-06T00:28:43;1.55;;;0.95;;
22017;SDS011;11173;51.050;7.108;2023-08-06T00:38:43;1.10;;;1.00;;
22017;SDS011;11173;51.050;7.108;2023-08-06T00:48:44;1.17;;;0.90;;
22017;SDS011;11173;51.050;7.108;2023-08-06T00:58:44;1.27;;;1.02;;
22017;SDS011;11173;51.050;7.108;2023-08-06T01:18:52;0.90;;;0.90;;
22017;SDS011;11173;51.050;7.108;2023-08-06T01:39:08;1.83;;;1.08;;
22017;SDS011;11173;51.050;7.108;2023-08-06T01:49:08;0.60;;;0.60;;
22017;SDS011;11173;51.050;7.108;2023-08-06T01:59:09;0.80;;;0.80;;
22017;SDS011;11173;51.050;7.108;2023-08-06T02:09:09;1.42;;;1.00;;
22017;SDS011;11173;51.050;7.108;2023-08-06T02:19:09;1.08;;;0.98;;
22017;SDS011;11173;51.050;7.108;2023-08-06T02:29:10;1.08;;;1.08;;
22017;SDS011;11173;51.050;7.108;2023-08-06T02:39:10;1.17;;;0.65;;
22017;SDS011;11173;51.050;7.108;2023-08-06T02:49:10;1.60;;;0.95;;
22017;SDS011;11173;51.050;7.108;2023-08-06T02:59:11;1.30;;;1.00;;
22017;SDS011;11173;51.050;7.108;2023-08-06T03:09:11;0.90;;;0.90;;
22017;SDS011;11173;51.050;7.108;2023-08-06T03:19:12;0.93;;;0.90;;
22017;SDS011;11173;51.050;7.108;2023-08-06T03:29:12;0.77;;;0.77;;
22017;SDS011;11173;51.050;7.108;2023-08-06T03:39:15;1.08;;;0.90;;
22017;SDS011;11173;51.050;7.108;2023-08-06T03:49:16;0.90;;;0.90;;
22017;SDS011;11173;51.050;7.108;2023-08-06T03:59:16;0.38;;;0.38;;
22017;SDS011;11173;51.050;7.108;2023-08-06T04:09:16;0.30;;;0.30;;
22017;SDS011;11173;51.050;7.108;2023-08-06T04:19:17;0.20;;;0.20;;
22017;SDS011;11173;51.050;7.108;2023-08-06T04:29:17;0.40;;;0.40;;
22017;SDS011;11173;51.050;7.108;2023-08-06T04:39:17;0.40;;;0.40;;
22017;SDS011;11173;51.050;7.108;2023-08-06T04:49:19;0.40;;;0.40;;
22017;SDS011;11173;51.050;7.108;2023-08-06T04:59:20;0.55;;;0.55;;
22017;SDS011;11173;51.050;7.108;2023-08-06T05:09:21;1.05;;;0.70;;
22017;SDS011;11173;51.050;7.108;2023-08-06T05:19:21;0.60;;;0.60;;
22017;SDS011;11173;51.050;7.108;2023-08-06T05:29:21;0.98;;;0.50;;
22017;SDS011;11173;51.050;7.108;2023-08-06T05:39:22;0.60;;;0.38;;
22017;SDS011;11173;51.050;7.108;2023-08-06T05:59:22;0.13;;;0.13;;
22017;SDS011;11173;51.050;7.108;2023-08-06T06:09:23;0.32;;;0.32;;
22017;SDS011;11173;51.050;7.108;2023-08-06T06:39:24;0.30;;;0.30;;
22017;SDS011;11173;51.050;7.108;2023-08-06T06:49:24;0.38;;;0.30;;
22017;SDS011;11173;51.050;7.108;2023-08-06T06:59:25;0.10;;;0.10;;
22017;SDS011;11173;51.050;7.108;2023-08-06T07:09:25;0.25;;;0.25;;
22017;SDS011;11173;51.050;7.108;2023-08-06T07:19:26;0.10;;;0.10;;
22017;SDS011;11173;51.050;7.108;2023-08-06T07:29:26;0.00;;;0.00;;
22017;SDS011;11173;51.050;7.108;2023-08-06T07:39:27;0.10;;;0.10;;
22017;SDS011;11173;51.050;7.108;2023-08-06T07:49:28;0.20;;;0.20;;
22017;SDS011;11173;51.050;7.108;2023-08-06T07:59:29;0.13;;;0.13;;
22017;SDS011;11173;51.050;7.108;2023-08-06T08:09:29;0.20;;;0.20;;
22017;SDS011;11173;51.050;7.108;2023-08-06T08:19:30;0.20;;;0.20;;
22017;SDS011;11173;51.050;7.108;2023-08-06T08:29:30;0.20;;;0.20;;
22017;SDS011;11173;51.050;7.108;2023-08-06T08:39:30;0.40;;;0.40;;
22017;SDS011;11173;51.050;7.108;2023-08-06T08:49:31;0.60;;;0.50;;
22017;SDS011;11173;51.050;7.108;2023-08-06T08:59:33;0.22;;;0.22;;
22017;SDS011;11173;51.050;7.108;2023-08-06T09:09:34;0.60;;;0.60;;
22017;SDS011;11173;51.050;7.108;2023-08-06T09:19:41;0.85;;;0.60;;
22017;SDS011;11173;51.050;7.108;2023-08-06T09:29:45;0.50;;;0.50;;
22017;SDS011;11173;51.050;7.108;2023-08-06T09:39:46;0.60;;;0.60;;
22017;SDS011;11173;51.050;7.108;2023-08-06T09:49:46;0.60;;;0.60;;
22017;SDS011;11173;51.050;7.108;2023-08-06T09:59:47;0.60;;;0.60;;
22017;SDS011;11173;51.050;7.108;2023-08-06T10:09:48;0.50;;;0.50;;
22017;SDS011;11173;51.050;7.108;2023-08-06T10:19:48;0.50;;;0.50;;
22017;SDS011;11173;51.050;7.108;2023-08-06T10:29:50;1.08;;;0.70;;
22017;SDS011;11173;51.050;7.108;2023-08-06T10:39:51;0.52;;;0.50;;
22017;SDS011;11173;51.050;7.108;2023-08-06T10:49:52;0.63;;;0.40;;
22017;SDS011;11173;51.050;7.108;2023-08-06T10:59:52;1.00;;;0.45;;
22017;SDS011;11173;51.050;7.108;2023-08-06T11:09:53;0.57;;;0.35;;
22017;SDS011;11173;51.050;7.108;2023-08-06T11:19:54;0.30;;;0.30;;
22017;SDS011;11173;51.050;7.108;2023-08-06T11:29:54;0.47;;;0.40;;
22017;SDS011;11173;51.050;7.108;2023-08-06T11:39:55;1.17;;;0.60;;
22017;SDS011;11173;51.050;7.108;2023-08-06T11:49:56;0.82;;;0.50;;
22017;SDS011;11173;51.050;7.108;2023-08-06T11:59:56;1.85;;;1.08;;
22017;SDS011;11173;51.050;7.108;2023-08-06T12:19:57;1.85;;;1.10;;
22017;SDS011;11173;51.050;7.108;2023-08-06T12:29:58;1.70;;;1.30;;
22017;SDS011;11173;51.050;7.108;2023-08-06T12:39:59;1.00;;;0.88;;
22017;SDS011;11173;51.050;7.108;2023-08-06T12:49:59;1.40;;;1.00;;
22017;SDS011;11173;51.050;7.108;2023-08-06T12:59:59;2.40;;;1.20;;
22017;SDS011;11173;51.050;7.108;2023-08-06T13:10:00;2.40;;;1.38;;
22017;SDS011;11173;51.050;7.108;2023-08-06T13:20:00;2.17;;;1.30;;
22017;SDS011;11173;51.050;7.108;2023-08-06T13:30:01;3.13;;;1.38;;
22017;SDS011;11173;51.050;7.108;2023-08-06T13:40:02;3.10;;;1.27;;
22017;SDS011;11173;51.050;7.108;2023-08-06T13:50:03;1.55;;;1.10;;
22017;SDS011;11173;51.050;7.108;2023-08-06T14:00:04;3.00;;;1.38;;
22017;SDS011;11173;51.050;7.108;2023-08-06T14:10:06;1.55;;;1.40;;
22017;SDS011;11173;51.050;7.108;2023-08-06T14:20:07;2.13;;;1.40;;
22017;SDS011;11173;51.050;7.108;2023-08-06T14:30:11;1.75;;;1.30;;
22017;SDS011;11173;51.050;7.108;2023-08-06T14:40:12;1.17;;;1.08;;
22017;SDS011;11173;51.050;7.108;2023-08-06T14:50:12;1.10;;;1.00;;
22017;SDS011;11173;51.050;7.108;2023-08-06T15:00:12;1.00;;;1.00;;
22017;SDS011;11173;51.050;7.108;2023-08-06T15:10:13;2.00;;;1.10;;
22017;SDS011;11173;51.050;7.108;2023-08-06T15:20:14;1.20;;;0.93;;
22017;SDS011;11173;51.050;7.108;2023-08-06T15:30:14;1.83;;;0.93;;
22017;SDS011;11173;51.050;7.108;2023-08-06T15:40:15;3.17;;;1.00;;
22017;SDS011;11173;51.050;7.108;2023-08-06T15:50:15;0.75;;;0.73;;
22017;SDS011;11173;51.050;7.108;2023-08-06T16:00:15;1.42;;;0.63;;
22017;SDS011;11173;51.050;7.108;2023-08-06T16:10:16;1.55;;;0.85;;
22017;SDS011;11173;51.050;7.108;2023-08-06T16:20:16;0.60;;;0.60;;
22017;SDS011;11173;51.050;7.108;2023-08-06T16:30:17;1.05;;;0.63;;
22017;SDS011;11173;51.050;7.108;2023-08-06T16:40:18;3.70;;;2.65;;
22017;SDS011;11173;51.050;7.108;2023-08-06T16:50:18;2.13;;;1.63;;
22017;SDS011;11173;51.050;7.108;2023-08-06T17:00:19;1.67;;;1.05;;
22017;SDS011;11173;51.050;7.108;2023-08-06T17:10:19;0.98;;;0.77;;
22017;SDS011;11173;51.050;7.108;2023-08-06T17:40:20;0.47;;;0.47;;
22017;SDS011;11173;51.050;7.108;2023-08-06T17:50:23;0.60;;;0.60;;
22017;SDS011;11173;51.050;7.108;2023-08-06T18:00:23;0.60;;;0.60;;
22017;SDS011;11173;51.050;7.108;2023-08-06T18:10:25;1.25;;;0.70;;
22017;SDS011;11173;51.050;7.108;2023-08-06T18:20:37;0.63;;;0.60;;
22017;SDS011;11173;51.050;7.108;2023-08-06T18:30:39;1.85;;;0.60;;
22017;SDS011;11173;51.050;7.108;2023-08-06T18:40:40;2.55;;;0.52;;
22017;SDS011;11173;51.050;7.108;2023-08-06T18:50:42;1.60;;;0.60;;
22017;SDS011;11173;51.050;7.108;2023-08-06T19:00:42;1.15;;;0.50;;
22017;SDS011;11173;51.050;7.108;2023-08-06T19:10:43;2.63;;;0.77;;
22017;SDS011;11173;51.050;7.108;2023-08-06T19:30:44;2.58;;;1.15;;
22017;SDS011;11173;51.050;7.108;2023-08-06T19:40:44;1.05;;;0.60;;
22017;SDS011;11173;51.050;7.108;2023-08-06T19:50:50;2.45;;;1.00;;
22017;SDS011;11173;51.050;7.108;2023-08-06T20:00:52;4.90;;;1.30;;
22017;SDS011;11173;51.050;7.108;2023-08-06T20:20:55;5.50;;;1.48;;
22017;SDS011;11173;51.050;7.108;2023-08-06T20:30:57;4.93;;;1.35;;
22017;SDS011;11173;51.050;7.108;2023-08-06T20:40:57;3.67;;;0.90;;
22017;SDS011;11173;51.050;7.108;2023-08-06T20:50:58;4.80;;;1.30;;
22017;SDS011;11173;51.050;7.108;2023-08-06T21:00:58;2.00;;;0.75;;
22017;SDS011;11173;51.050;7.108;2023-08-06T21:11:01;2.60;;;1.00;;
22017;SDS011;11173;51.050;7.108;2023-08-06T21:21:03;2.63;;;0.85;;
22017;SDS011;11173;51.050;7.108;2023-08-06T21:40:21;1.80;;;0.88;;
22017;SDS011;11173;51.050;7.108;2023-08-06T22:00:22;4.10;;;1.85;;
22017;SDS011;11173;51.050;7.108;2023-08-06T22:20:23;1.92;;;0.93;;
22017;SDS011;11173;51.050;7.108;2023-08-06T22:40:24;4.65;;;1.50;;
22017;SDS011;11173;51.050;7.108;2023-08-06T22:50:25;4.90;;;1.13;;
22017;SDS011;11173;51.050;7.108;2023-08-06T23:20:26;4.82;;;1.52;;
22017;SDS011;11173;51.050;7.108;2023-08-06T23:30:27;3.75;;;1.90;;
22017;SDS011;11173;51.050;7.108;2023-08-06T23:40:28;2.72;;;1.40;;
22017;SDS011;11173;51.050;7.108;2023-08-06T23:50:29;5.03;;;1.60;;
